Time;durP1;ratioP1;P1;durP2;ratioP2;P2;SDS_P1;SDS_P2;PMS_P1;PMS_P2;Temp;Humidity;BMP_temperature;BMP_pressure;BME280_temperature;BME280_humidity;BME280_pressure;Samples;Min_cycle;Max_cycle;Signal;HPM_P1;HPM_P2
2022/07/31 00:01:56;;;;;;;;;;;24.90;45.70;;;;;;5018049;28;19930;-70
2022/07/31 00:04:23;;;;;;;;;;;24.90;45.70;;;;;;5036898;28;19928;-71
2022/07/31 00:06:51;;;;;;;;;;;24.80;45.80;;;;;;5024371;28;19982;-68
2022/07/31 00:09:18;;;;;;;;;;;24.80;45.90;;;;;;5027809;28;19925;-70
2022/07/31 00:11:44;;;;;;;;;;;24.70;45.90;;;;;;5034218;28;19936;-69
2022/07/31 00:14:12;;;;;;;;;;;24.70;46.00;;;;;;5036505;28;19925;-70
2022/07/31 00:16:38;;;;;;;;;;;24.70;46.10;;;;;;5020100;28;20040;-69
2022/07/31 00:19:05;;;;;;;;;;;24.60;46.80;;;;;;5019828;28;19932;-69
2022/07/31 00:21:31;;;;;;;;;;;24.60;46.40;;;;;;5030466;28;19929;-70
2022/07/31 00:23:59;;;;;;;;;;;24.50;46.50;;;;;;5025034;28;19925;-69
2022/07/31 00:26:26;;;;;;;;;;;24.50;46.50;;;;;;5033121;28;19933;-69
2022/07/31 00:28:52;;;;;;;;;;;24.50;46.90;;;;;;5045812;28;20312;-71
2022/07/31 00:31:19;;;;;;;;;;;24.50;46.80;;;;;;5025077;28;20378;-70
2022/07/31 00:33:45;;;;;;;;;;;24.40;46.90;;;;;;5017609;28;20404;-68
2022/07/31 00:36:12;;;;;;;;;;;24.40;47.10;;;;;;5033103;28;19932;-70
2022/07/31 00:38:39;;;;;;;;;;;24.30;47.20;;;;;;5028032;28;19925;-69
2022/07/31 00:41:06;;;;;;;;;;;24.30;47.30;;;;;;5028696;28;20388;-68
2022/07/31 00:43:33;;;;;;;;;;;24.30;47.30;;;;;;5023509;28;19929;-69
2022/07/31 00:46:00;;;;;;;;;;;24.30;47.30;;;;;;5019028;28;19932;-69
2022/07/31 00:48:26;;;;;;;;;;;24.20;47.20;;;;;;5040368;28;19928;-70
2022/07/31 00:50:53;;;;;;;;;;;24.20;47.40;;;;;;5027413;28;19925;-70
2022/07/31 00:53:19;;;;;;;;;;;24.20;47.70;;;;;;5028219;28;19932;-69
2022/07/31 00:55:46;;;;;;;;;;;24.20;47.40;;;;;;5027501;28;20494;-69
2022/07/31 00:58:14;;;;;;;;;;;24.10;47.60;;;;;;5025489;28;19933;-70
2022/07/31 01:00:40;;;;;;;;;;;24.10;47.80;;;;;;5019362;28;19932;-70
2022/07/31 01:03:07;;;;;;;;;;;24.00;47.90;;;;;;5021529;28;19952;-69
2022/07/31 01:05:33;;;;;;;;;;;24.00;48.10;;;;;;5035640;28;20367;-69
2022/07/31 01:08:00;;;;;;;;;;;24.00;48.10;;;;;;5020090;28;19929;-69
2022/07/31 01:10:35;;;;;;;;;;;24.00;48.30;;;;;;5034876;28;20373;-71
2022/07/31 01:13:07;;;;;;;;;;;24.00;48.30;;;;;;5042060;28;19933;-69
2022/07/31 01:15:35;;;;;;;;;;;23.90;48.30;;;;;;5022333;28;19939;-69
2022/07/31 01:18:02;;;;;;;;;;;23.80;48.40;;;;;;5018815;28;19936;-71
2022/07/31 01:20:29;;;;;;;;;;;23.80;48.40;;;;;;5027942;28;19933;-69
2022/07/31 01:23:00;;;;;;;;;;;23.80;48.50;;;;;;5027126;28;19929;-69
2022/07/31 01:25:32;;;;;;;;;;;23.70;48.60;;;;;;5027958;28;19931;-70
2022/07/31 01:28:01;;;;;;;;;;;23.70;48.70;;;;;;5033005;28;19932;-69
2022/07/31 01:30:31;;;;;;;;;;;23.70;48.70;;;;;;5028965;28;19931;-69
2022/07/31 01:33:01;;;;;;;;;;;23.70;48.80;;;;;;5018988;28;19940;-69
2022/07/31 01:35:29;;;;;;;;;;;23.60;49.00;;;;;;5020838;28;19929;-69
2022/07/31 01:37:57;;;;;;;;;;;23.60;49.00;;;;;;5035338;28;19936;-67
2022/07/31 01:40:27;;;;;;;;;;;23.60;49.00;;;;;;5026413;28;19924;-69
2022/07/31 01:42:55;;;;;;;;;;;23.50;49.00;;;;;;5027970;28;20381;-71
2022/07/31 01:45:22;;;;;;;;;;;23.50;49.20;;;;;;5019213;28;20527;-69
2022/07/31 01:47:50;;;;;;;;;;;23.50;49.20;;;;;;5025203;28;19925;-69
2022/07/31 01:50:18;;;;;;;;;;;23.40;49.10;;;;;;5036647;28;19921;-70
2022/07/31 01:52:45;;;;;;;;;;;23.40;49.30;;;;;;5021826;28;19948;-69
2022/07/31 01:55:15;;;;;;;;;;;23.40;49.40;;;;;;5045649;28;20233;-73
2022/07/31 01:57:42;;;;;;;;;;;23.40;49.30;;;;;;5018806;28;19934;-69
2022/07/31 02:00:10;;;;;;;;;;;23.30;49.30;;;;;;5022111;28;19929;-69
2022/07/31 02:02:37;;;;;;;;;;;23.30;49.50;;;;;;5021700;28;19964;-70
2022/07/31 02:05:06;;;;;;;;;;;23.30;49.50;;;;;;5036255;28;19932;-70
2022/07/31 02:07:33;;;;;;;;;;;23.30;49.50;;;;;;5022451;28;19972;-69
2022/07/31 02:10:00;;;;;;;;;;;23.20;49.70;;;;;;5043292;28;19952;-72
2022/07/31 02:12:28;;;;;;;;;;;23.20;49.60;;;;;;5037161;28;20278;-69
2022/07/31 02:14:55;;;;;;;;;;;23.20;49.70;;;;;;5032175;28;20416;-71
2022/07/31 02:17:22;;;;;;;;;;;23.20;49.80;;;;;;5029581;28;19921;-69
2022/07/31 02:19:51;;;;;;;;;;;23.20;49.80;;;;;;5038055;28;19921;-70
2022/07/31 02:22:19;;;;;;;;;;;23.10;49.90;;;;;;5044297;28;19928;-70
2022/07/31 02:24:45;;;;;;;;;;;23.10;49.90;;;;;;5037628;28;20427;-69
2022/07/31 02:27:12;;;;;;;;;;;23.10;50.00;;;;;;5038092;28;19925;-70
2022/07/31 02:29:39;;;;;;;;;;;23.00;50.00;;;;;;5032616;28;19937;-69
2022/07/31 02:32:06;;;;;;;;;;;23.00;50.00;;;;;;5023309;28;19925;-70
2022/07/31 02:34:34;;;;;;;;;;;22.90;50.00;;;;;;5024573;28;19945;-69
2022/07/31 02:37:01;;;;;;;;;;;23.00;50.10;;;;;;5032692;28;20321;-70
2022/07/31 02:39:30;;;;;;;;;;;22.90;50.20;;;;;;5034823;28;19940;-70
2022/07/31 02:41:59;;;;;;;;;;;22.90;50.30;;;;;;5038222;28;20356;-70
2022/07/31 02:44:26;;;;;;;;;;;22.80;50.30;;;;;;5033410;28;19925;-69
2022/07/31 02:46:53;;;;;;;;;;;22.80;50.20;;;;;;5027558;28;20527;-70
2022/07/31 02:49:20;;;;;;;;;;;22.80;50.40;;;;;;5036342;28;19924;-70
2022/07/31 02:51:46;;;;;;;;;;;22.80;50.40;;;;;;5027020;28;20373;-71
2022/07/31 02:54:13;;;;;;;;;;;22.70;50.20;;;;;;5035368;28;19929;-72
2022/07/31 02:56:41;;;;;;;;;;;22.70;50.50;;;;;;5036955;28;20427;-70
2022/07/31 02:59:08;;;;;;;;;;;22.70;50.50;;;;;;5023826;28;19925;-69
2022/07/31 03:01:35;;;;;;;;;;;22.70;50.60;;;;;;5024661;28;19932;-71
2022/07/31 03:04:01;;;;;;;;;;;22.60;50.40;;;;;;5028807;28;19937;-70
2022/07/31 03:06:28;;;;;;;;;;;22.60;50.70;;;;;;5031957;28;20407;-69
2022/07/31 03:08:54;;;;;;;;;;;22.60;50.70;;;;;;5024310;28;19932;-69
2022/07/31 03:11:21;;;;;;;;;;;22.60;50.70;;;;;;5027947;28;19927;-69
2022/07/31 03:13:49;;;;;;;;;;;22.60;50.90;;;;;;5041483;28;19933;-70
2022/07/31 03:16:16;;;;;;;;;;;22.50;50.80;;;;;;5023659;28;19944;-70
2022/07/31 03:18:43;;;;;;;;;;;22.50;51.10;;;;;;5020072;28;19948;-71
2022/07/31 03:21:10;;;;;;;;;;;22.50;51.20;;;;;;5043497;28;19979;-72
2022/07/31 03:23:37;;;;;;;;;;;22.40;50.90;;;;;;5028294;28;20701;-69
2022/07/31 03:26:05;;;;;;;;;;;22.40;51.00;;;;;;5038017;28;19931;-69
2022/07/31 03:28:33;;;;;;;;;;;22.40;51.20;;;;;;5039927;28;19931;-69
2022/07/31 03:31:01;;;;;;;;;;;22.30;51.10;;;;;;5030623;28;20650;-69
2022/07/31 03:33:27;;;;;;;;;;;22.30;51.10;;;;;;5016661;28;19925;-69
2022/07/31 03:35:54;;;;;;;;;;;22.30;51.20;;;;;;5022138;28;19932;-70
2022/07/31 03:38:20;;;;;;;;;;;22.30;51.20;;;;;;5027680;28;20309;-69
2022/07/31 03:40:47;;;;;;;;;;;22.20;51.10;;;;;;5021013;28;19933;-69
2022/07/31 03:43:15;;;;;;;;;;;22.20;51.30;;;;;;5027871;28;19929;-72
2022/07/31 03:45:42;;;;;;;;;;;22.20;51.20;;;;;;5020321;28;19952;-70
2022/07/31 03:48:10;;;;;;;;;;;22.20;51.30;;;;;;5018930;28;19960;-69
2022/07/31 03:50:37;;;;;;;;;;;22.10;51.40;;;;;;5039610;28;19925;-69
2022/07/31 03:53:04;;;;;;;;;;;22.10;51.30;;;;;;5021851;28;20015;-68
2022/07/31 03:55:31;;;;;;;;;;;22.10;51.40;;;;;;5033279;28;19928;-70
2022/07/31 03:57:58;;;;;;;;;;;22.10;51.50;;;;;;5017610;28;19929;-69
2022/07/31 04:00:26;;;;;;;;;;;22.10;51.50;;;;;;5019834;28;19933;-70
2022/07/31 04:02:53;;;;;;;;;;;22.00;51.40;;;;;;5023044;28;19925;-69
2022/07/31 04:05:21;;;;;;;;;;;22.00;51.50;;;;;;5022783;28;19932;-68
2022/07/31 04:07:48;;;;;;;;;;;22.00;51.60;;;;;;5023836;28;20032;-69
2022/07/31 04:10:14;;;;;;;;;;;21.90;51.60;;;;;;5034327;28;19935;-72
2022/07/31 04:12:41;;;;;;;;;;;21.90;51.40;;;;;;5035154;28;19928;-69
2022/07/31 04:15:08;;;;;;;;;;;21.90;51.60;;;;;;5031145;28;19936;-71
2022/07/31 04:17:34;;;;;;;;;;;21.90;51.70;;;;;;5018950;28;19938;-69
2022/07/31 04:20:01;;;;;;;;;;;21.90;51.80;;;;;;5029355;28;19924;-69
2022/07/31 04:22:29;;;;;;;;;;;21.90;51.80;;;;;;5035666;28;19925;-69
2022/07/31 04:24:55;;;;;;;;;;;21.80;51.80;;;;;;5030880;28;20304;-70
2022/07/31 04:27:22;;;;;;;;;;;21.80;51.80;;;;;;5031474;28;20307;-69
2022/07/31 04:29:49;;;;;;;;;;;21.80;51.90;;;;;;5040168;28;20313;-69
2022/07/31 04:32:15;;;;;;;;;;;21.80;51.90;;;;;;5017381;28;19929;-69
2022/07/31 04:34:42;;;;;;;;;;;21.80;51.90;;;;;;5017506;28;20389;-70
2022/07/31 04:37:09;;;;;;;;;;;21.80;52.00;;;;;;5031672;28;19929;-69
2022/07/31 04:39:37;;;;;;;;;;;21.70;51.90;;;;;;5025717;28;20481;-71
2022/07/31 04:42:03;;;;;;;;;;;21.70;51.90;;;;;;5025577;28;19939;-70
2022/07/31 04:44:30;;;;;;;;;;;21.70;52.00;;;;;;5025618;28;19929;-69
2022/07/31 04:46:58;;;;;;;;;;;21.70;52.10;;;;;;5013766;28;19980;-67
2022/07/31 04:49:25;;;;;;;;;;;21.70;52.10;;;;;;5037920;28;19933;-68
2022/07/31 04:51:51;;;;;;;;;;;21.70;52.10;;;;;;5029072;28;20317;-69
2022/07/31 04:54:18;;;;;;;;;;;21.70;52.10;;;;;;5031270;28;20016;-71
2022/07/31 04:56:47;;;;;;;;;;;21.70;52.00;;;;;;5032025;28;19932;-69
2022/07/31 04:59:14;;;;;;;;;;;21.70;52.20;;;;;;5019416;28;20389;-70
2022/07/31 05:01:42;;;;;;;;;;;21.70;52.30;;;;;;5022237;28;19929;-69
2022/07/31 05:04:09;;;;;;;;;;;21.70;52.30;;;;;;5028100;28;19933;-69
2022/07/31 05:06:36;;;;;;;;;;;21.60;52.40;;;;;;5027233;28;19929;-69
2022/07/31 05:09:04;;;;;;;;;;;21.60;52.30;;;;;;5023402;28;19936;-69
2022/07/31 05:11:30;;;;;;;;;;;21.60;52.40;;;;;;5039465;28;19935;-69
2022/07/31 05:13:59;;;;;;;;;;;21.60;52.40;;;;;;5040604;28;20309;-69
2022/07/31 05:16:26;;;;;;;;;;;21.60;52.40;;;;;;5011648;28;19929;-70
2022/07/31 05:18:53;;;;;;;;;;;21.60;52.40;;;;;;5018793;28;20289;-70
2022/07/31 05:21:20;;;;;;;;;;;21.60;52.50;;;;;;5044120;28;19931;-69
2022/07/31 05:23:48;;;;;;;;;;;21.60;52.60;;;;;;5016188;28;19925;-69
2022/07/31 05:26:16;;;;;;;;;;;21.60;52.70;;;;;;5038472;28;19925;-69
2022/07/31 05:28:43;;;;;;;;;;;21.60;52.70;;;;;;5019758;28;19925;-71
2022/07/31 05:31:11;;;;;;;;;;;21.50;52.60;;;;;;5017076;28;19925;-70
2022/07/31 05:33:38;;;;;;;;;;;21.50;52.70;;;;;;5034613;28;20008;-69
2022/07/31 05:36:05;;;;;;;;;;;21.50;52.80;;;;;;5034062;28;19986;-69
2022/07/31 05:38:31;;;;;;;;;;;21.50;52.90;;;;;;5038536;28;20381;-70
2022/07/31 05:40:58;;;;;;;;;;;21.50;52.90;;;;;;5024378;28;20420;-67
2022/07/31 05:43:24;;;;;;;;;;;21.50;53.00;;;;;;5025545;28;19929;-69
2022/07/31 05:45:51;;;;;;;;;;;21.50;53.10;;;;;;5016788;28;19930;-69
2022/07/31 05:48:19;;;;;;;;;;;21.50;53.10;;;;;;5025710;28;19936;-71
2022/07/31 05:50:46;;;;;;;;;;;21.50;53.20;;;;;;5017710;28;19930;-71
2022/07/31 05:53:14;;;;;;;;;;;21.50;53.20;;;;;;5021094;28;19929;-70
2022/07/31 05:55:40;;;;;;;;;;;21.50;53.20;;;;;;5044181;28;19925;-70
2022/07/31 05:58:07;;;;;;;;;;;21.50;53.20;;;;;;5017169;28;19934;-68
2022/07/31 06:00:34;;;;;;;;;;;21.50;53.20;;;;;;5018174;28;19937;-70
2022/07/31 06:03:01;;;;;;;;;;;21.50;53.30;;;;;;5019263;28;19929;-71
2022/07/31 06:05:29;;;;;;;;;;;21.50;53.30;;;;;;5030553;28;19925;-71
2022/07/31 06:07:55;;;;;;;;;;;21.50;53.30;;;;;;5018560;28;20048;-69
2022/07/31 06:10:22;;;;;;;;;;;21.50;53.30;;;;;;5029912;28;19933;-69
2022/07/31 06:12:49;;;;;;;;;;;21.50;53.40;;;;;;5039437;28;19931;-71
2022/07/31 06:15:16;;;;;;;;;;;21.50;53.50;;;;;;5020981;28;19921;-69
2022/07/31 06:17:43;;;;;;;;;;;21.50;53.50;;;;;;5019314;28;19934;-70
2022/07/31 06:20:10;;;;;;;;;;;21.50;53.60;;;;;;5015042;28;19952;-72
2022/07/31 06:22:38;;;;;;;;;;;21.50;53.60;;;;;;5030535;28;19928;-69
2022/07/31 06:25:07;;;;;;;;;;;21.50;53.70;;;;;;5023889;28;19999;-70
2022/07/31 06:27:34;;;;;;;;;;;21.60;53.80;;;;;;5028448;28;20028;-71
2022/07/31 06:30:00;;;;;;;;;;;21.60;53.80;;;;;;5018638;28;19925;-69
2022/07/31 06:32:27;;;;;;;;;;;21.50;53.80;;;;;;5016082;28;19926;-69
2022/07/31 06:34:53;;;;;;;;;;;21.60;53.90;;;;;;5032986;28;19929;-71
2022/07/31 06:37:20;;;;;;;;;;;21.60;53.90;;;;;;5029575;28;20503;-69
2022/07/31 06:39:48;;;;;;;;;;;21.60;53.90;;;;;;5019314;28;19929;-72
2022/07/31 06:42:17;;;;;;;;;;;21.60;54.00;;;;;;5031284;28;19971;-69
2022/07/31 06:44:44;;;;;;;;;;;21.60;54.00;;;;;;5017379;28;19976;-69
2022/07/31 06:47:10;;;;;;;;;;;21.60;54.10;;;;;;5023870;28;19925;-69
2022/07/31 06:49:37;;;;;;;;;;;21.60;54.10;;;;;;5024637;28;19968;-71
2022/07/31 06:52:04;;;;;;;;;;;21.60;54.20;;;;;;5017188;28;19928;-69
2022/07/31 06:54:30;;;;;;;;;;;21.60;54.10;;;;;;5031793;28;20413;-70
2022/07/31 06:56:58;;;;;;;;;;;21.60;54.00;;;;;;5029547;28;19929;-69
2022/07/31 06:59:25;;;;;;;;;;;21.70;54.10;;;;;;5020571;28;19933;-71
2022/07/31 07:01:52;;;;;;;;;;;21.70;53.90;;;;;;5036896;28;19929;-71
2022/07/31 07:04:18;;;;;;;;;;;21.60;53.70;;;;;;5025790;28;19944;-69
2022/07/31 07:06:45;;;;;;;;;;;21.70;53.80;;;;;;5020405;28;19932;-69
2022/07/31 07:09:11;;;;;;;;;;;21.70;53.80;;;;;;5026544;28;19925;-71
2022/07/31 07:11:38;;;;;;;;;;;21.70;53.50;;;;;;5041391;28;19928;-69
2022/07/31 07:14:06;;;;;;;;;;;21.70;53.50;;;;;;5036932;28;19925;-71
2022/07/31 07:16:32;;;;;;;;;;;21.70;53.40;;;;;;5014365;28;19936;-69
2022/07/31 07:18:59;;;;;;;;;;;21.70;53.40;;;;;;5019782;28;19929;-70
2022/07/31 07:21:26;;;;;;;;;;;21.70;53.30;;;;;;5038528;28;19933;-69
2022/07/31 07:23:52;;;;;;;;;;;21.80;53.10;;;;;;5032392;28;19932;-70
2022/07/31 07:26:19;;;;;;;;;;;21.80;53.10;;;;;;5040243;28;19932;-70
2022/07/31 07:28:45;;;;;;;;;;;21.80;53.00;;;;;;5034928;28;20152;-69
2022/07/31 07:31:13;;;;;;;;;;;21.80;52.90;;;;;;5028600;28;19929;-72
2022/07/31 07:33:40;;;;;;;;;;;21.80;52.90;;;;;;5018839;28;19945;-73
2022/07/31 07:36:06;;;;;;;;;;;21.90;52.90;;;;;;5028261;28;19925;-70
2022/07/31 07:38:33;;;;;;;;;;;21.90;52.80;;;;;;5040785;28;20709;-70
2022/07/31 07:40:59;;;;;;;;;;;21.90;52.80;;;;;;5024336;28;19928;-69
2022/07/31 07:43:26;;;;;;;;;;;21.90;52.70;;;;;;5027064;28;19929;-70
2022/07/31 07:45:52;;;;;;;;;;;21.90;52.70;;;;;;5028170;28;19933;-72
2022/07/31 07:48:20;;;;;;;;;;;22.00;52.70;;;;;;5016968;28;19979;-70
2022/07/31 07:50:47;;;;;;;;;;;22.00;52.70;;;;;;5028759;28;19928;-70
2022/07/31 07:53:13;;;;;;;;;;;22.00;52.70;;;;;;5025303;28;20016;-70
2022/07/31 07:55:40;;;;;;;;;;;22.10;52.60;;;;;;5042994;28;19925;-70
2022/07/31 07:58:06;;;;;;;;;;;22.10;52.60;;;;;;5019155;28;19933;-70
2022/07/31 08:00:33;;;;;;;;;;;22.10;52.60;;;;;;5018508;28;20538;-71
2022/07/31 08:03:00;;;;;;;;;;;22.20;52.50;;;;;;5041980;28;20029;-69
2022/07/31 08:05:27;;;;;;;;;;;22.20;52.90;;;;;;5025975;28;19951;-70
2022/07/31 08:07:54;;;;;;;;;;;22.20;52.60;;;;;;5021494;28;19933;-69
2022/07/31 08:10:20;;;;;;;;;;;22.20;52.40;;;;;;5034969;28;20408;-70
2022/07/31 08:12:47;;;;;;;;;;;22.30;52.40;;;;;;5037843;28;20454;-70
2022/07/31 08:15:14;;;;;;;;;;;22.30;52.40;;;;;;5023359;28;19940;-69
2022/07/31 08:17:40;;;;;;;;;;;22.30;52.20;;;;;;5017535;28;19936;-70
2022/07/31 08:20:07;;;;;;;;;;;22.40;52.30;;;;;;5021526;28;20016;-70
2022/07/31 08:22:35;;;;;;;;;;;22.40;52.10;;;;;;5034992;28;19929;-71
2022/07/31 08:25:02;;;;;;;;;;;22.40;52.00;;;;;;5035440;28;19930;-67
2022/07/31 08:27:29;;;;;;;;;;;22.50;52.10;;;;;;5039711;28;19932;-70
2022/07/31 08:29:57;;;;;;;;;;;22.50;52.00;;;;;;5034065;28;19929;-69
2022/07/31 08:32:24;;;;;;;;;;;22.50;52.00;;;;;;5019601;28;19932;-72
2022/07/31 08:34:51;;;;;;;;;;;22.60;52.00;;;;;;5025164;28;19979;-70
2022/07/31 08:37:18;;;;;;;;;;;22.70;52.00;;;;;;5044703;28;19928;-72
2022/07/31 08:39:46;;;;;;;;;;;22.70;51.90;;;;;;5018233;28;19926;-69
2022/07/31 08:42:13;;;;;;;;;;;22.70;51.80;;;;;;5028587;28;19983;-69
2022/07/31 08:44:40;;;;;;;;;;;22.70;51.70;;;;;;5017894;28;20327;-70
2022/07/31 08:47:07;;;;;;;;;;;22.80;51.60;;;;;;5021201;28;20019;-70
2022/07/31 08:49:37;;;;;;;;;;;22.80;51.60;;;;;;5028074;28;19937;-69
2022/07/31 08:52:03;;;;;;;;;;;22.90;51.50;;;;;;5014533;28;19929;-69
2022/07/31 08:54:31;;;;;;;;;;;22.90;51.50;;;;;;5037619;28;19936;-69
2022/07/31 08:56:58;;;;;;;;;;;23.00;51.50;;;;;;5029044;28;20408;-70
2022/07/31 08:59:25;;;;;;;;;;;23.00;51.40;;;;;;5021044;28;19929;-70
2022/07/31 09:01:55;;;;;;;;;;;23.10;51.40;;;;;;5019888;28;19932;-68
2022/07/31 09:04:22;;;;;;;;;;;23.10;51.30;;;;;;5028697;28;19933;-69
2022/07/31 09:06:48;;;;;;;;;;;23.10;51.20;;;;;;5022953;28;20385;-68
2022/07/31 09:09:16;;;;;;;;;;;23.20;51.10;;;;;;5023351;28;20361;-70
2022/07/31 09:11:46;;;;;;;;;;;23.20;51.10;;;;;;5039053;28;19928;-71
2022/07/31 09:14:24;;;;;;;;;;;23.30;51.00;;;;;;5035986;28;19969;-72
2022/07/31 09:16:51;;;;;;;;;;;23.30;50.90;;;;;;5017930;28;19932;-69
2022/07/31 09:19:17;;;;;;;;;;;23.40;50.80;;;;;;5021241;28;19979;-71
2022/07/31 09:21:45;;;;;;;;;;;23.40;50.80;;;;;;5037006;28;19941;-72
2022/07/31 09:24:12;;;;;;;;;;;23.40;50.60;;;;;;5028054;28;19925;-69
2022/07/31 09:26:40;;;;;;;;;;;23.50;50.60;;;;;;5034309;28;19936;-70
2022/07/31 09:29:10;;;;;;;;;;;23.50;50.50;;;;;;5040811;28;20473;-69
2022/07/31 09:31:38;;;;;;;;;;;23.60;50.30;;;;;;5019177;28;19936;-71
2022/07/31 09:34:05;;;;;;;;;;;23.70;50.20;;;;;;5023814;28;19926;-71
2022/07/31 09:36:31;;;;;;;;;;;23.80;50.00;;;;;;5034613;28;19932;-70
2022/07/31 09:38:59;;;;;;;;;;;23.80;49.80;;;;;;5030131;28;19933;-69
2022/07/31 09:41:26;;;;;;;;;;;23.90;49.80;;;;;;5023134;28;19929;-70
2022/07/31 09:43:55;;;;;;;;;;;24.00;49.70;;;;;;5027690;28;20633;-69
2022/07/31 09:46:22;;;;;;;;;;;24.00;49.30;;;;;;5020937;28;19931;-69
2022/07/31 09:48:51;;;;;;;;;;;24.10;49.20;;;;;;5037025;28;20324;-70
2022/07/31 09:51:17;;;;;;;;;;;24.20;48.90;;;;;;5024834;28;20381;-71
2022/07/31 09:53:45;;;;;;;;;;;24.30;48.90;;;;;;5027572;28;19936;-71
2022/07/31 09:56:13;;;;;;;;;;;24.30;48.80;;;;;;5038058;28;19956;-70
2022/07/31 09:58:40;;;;;;;;;;;24.40;48.40;;;;;;5009196;28;19925;-70
2022/07/31 10:01:08;;;;;;;;;;;24.50;48.30;;;;;;5018948;28;19961;-71
2022/07/31 10:03:35;;;;;;;;;;;24.50;48.10;;;;;;5037761;28;19932;-72
2022/07/31 10:06:04;;;;;;;;;;;24.60;47.90;;;;;;5031006;28;19925;-67
2022/07/31 10:08:33;;;;;;;;;;;24.70;47.80;;;;;;5019303;28;19929;-70
2022/07/31 10:11:01;;;;;;;;;;;24.80;47.70;;;;;;5032569;28;19933;-70
2022/07/31 10:13:28;;;;;;;;;;;24.80;47.40;;;;;;5027599;28;20413;-72
2022/07/31 10:15:56;;;;;;;;;;;24.80;47.10;;;;;;5019504;28;19925;-69
2022/07/31 10:18:23;;;;;;;;;;;24.90;47.10;;;;;;5022966;28;19929;-72
2022/07/31 10:20:54;;;;;;;;;;;24.90;47.10;;;;;;5036445;28;19925;-71
2022/07/31 10:23:26;;;;;;;;;;;25.00;46.90;;;;;;5034720;28;19933;-70
2022/07/31 10:25:54;;;;;;;;;;;25.00;46.70;;;;;;5037680;28;19929;-71
2022/07/31 10:28:21;;;;;;;;;;;25.10;46.50;;;;;;5032914;28;19926;-71
2022/07/31 10:30:48;;;;;;;;;;;25.20;46.50;;;;;;5032603;28;19933;-70
2022/07/31 10:33:16;;;;;;;;;;;25.20;46.40;;;;;;5020889;28;19929;-70
2022/07/31 10:35:44;;;;;;;;;;;25.30;46.40;;;;;;5029810;28;20547;-72
2022/07/31 10:38:12;;;;;;;;;;;25.30;46.20;;;;;;5038947;28;19936;-73
2022/07/31 10:40:43;;;;;;;;;;;25.40;46.70;;;;;;5038745;28;19925;-70
2022/07/31 10:43:17;;;;;;;;;;;25.50;45.90;;;;;;5022963;28;20006;-71
2022/07/31 10:45:48;;;;;;;;;;;25.50;45.80;;;;;;5016885;28;19925;-70
2022/07/31 10:48:16;;;;;;;;;;;25.60;45.30;;;;;;5023211;28;19994;-70
2022/07/31 10:50:42;;;;;;;;;;;25.70;45.30;;;;;;5035732;28;19976;-70
2022/07/31 10:53:09;;;;;;;;;;;25.70;45.10;;;;;;5023061;28;19929;-71
2022/07/31 10:55:36;;;;;;;;;;;25.80;45.00;;;;;;5046664;28;19935;-71
2022/07/31 10:58:14;;;;;;;;;;;25.90;44.90;;;;;;5019091;28;20747;-70
2022/07/31 11:00:41;;;;;;;;;;;25.90;44.60;;;;;;5022285;28;19932;-71
2022/07/31 11:03:14;;;;;;;;;;;26.00;45.10;;;;;;5043492;28;19929;-69
2022/07/31 11:05:51;;;;;;;;;;;26.10;44.50;;;;;;5029129;28;19925;-71
2022/07/31 11:08:18;;;;;;;;;;;26.10;44.30;;;;;;5028061;28;19929;-70
2022/07/31 11:10:49;;;;;;;;;;;26.20;44.00;;;;;;5037990;28;19929;-70
2022/07/31 11:13:17;;;;;;;;;;;26.30;43.90;;;;;;5037974;28;19932;-70
2022/07/31 11:15:43;;;;;;;;;;;26.30;44.00;;;;;;5017824;28;19936;-74
2022/07/31 11:18:13;;;;;;;;;;;26.40;43.80;;;;;;5019858;28;19926;-72
2022/07/31 11:20:41;;;;;;;;;;;26.40;43.50;;;;;;5036372;28;19925;-72
2022/07/31 11:23:08;;;;;;;;;;;26.50;43.70;;;;;;5038491;28;19933;-70
2022/07/31 11:25:36;;;;;;;;;;;26.50;43.80;;;;;;5042119;28;19924;-71
2022/07/31 11:28:13;;;;;;;;;;;26.60;43.70;;;;;;5038765;28;19975;-68
2022/07/31 11:30:54;;;;;;;;;;;26.60;43.60;;;;;;5034781;28;19929;-71
2022/07/31 11:33:31;;;;;;;;;;;26.70;43.50;;;;;;5018876;28;19933;-70
2022/07/31 11:36:04;;;;;;;;;;;26.70;43.40;;;;;;5030859;28;19925;-69
2022/07/31 11:38:31;;;;;;;;;;;26.70;43.60;;;;;;5023674;28;19984;-70
2022/07/31 11:40:58;;;;;;;;;;;26.80;43.30;;;;;;5022616;28;20152;-70
2022/07/31 11:43:24;;;;;;;;;;;26.90;43.30;;;;;;5026559;28;19937;-70
2022/07/31 11:45:53;;;;;;;;;;;26.90;43.20;;;;;;5017301;28;19926;-71
2022/07/31 11:48:21;;;;;;;;;;;27.00;43.30;;;;;;5023112;28;20003;-69
2022/07/31 11:50:48;;;;;;;;;;;27.00;43.10;;;;;;5020712;28;19926;-72
2022/07/31 11:53:15;;;;;;;;;;;27.10;42.90;;;;;;5020377;28;20078;-70
2022/07/31 11:55:47;;;;;;;;;;;27.10;43.00;;;;;;5037001;28;19929;-72
2022/07/31 11:58:14;;;;;;;;;;;27.20;43.10;;;;;;5025090;28;19929;-71
2022/07/31 12:00:46;;;;;;;;;;;27.30;42.80;;;;;;5017573;28;19933;-70
2022/07/31 12:03:14;;;;;;;;;;;27.40;42.80;;;;;;5020672;28;20680;-72
2022/07/31 12:05:43;;;;;;;;;;;27.40;42.70;;;;;;5023962;28;19925;-72
2022/07/31 12:08:10;;;;;;;;;;;27.50;42.80;;;;;;5018103;28;20300;-72
2022/07/31 12:10:38;;;;;;;;;;;27.60;42.70;;;;;;5015333;28;19936;-70
2022/07/31 12:13:04;;;;;;;;;;;27.70;42.40;;;;;;5026710;28;19933;-71
2022/07/31 12:15:31;;;;;;;;;;;27.70;42.70;;;;;;5019132;28;19932;-70
2022/07/31 12:18:00;;;;;;;;;;;27.80;42.40;;;;;;5022605;28;20415;-67
2022/07/31 12:20:29;;;;;;;;;;;27.90;42.30;;;;;;5030543;28;19936;-70
2022/07/31 12:22:56;;;;;;;;;;;28.00;42.10;;;;;;5023252;28;20835;-71
2022/07/31 12:25:23;;;;;;;;;;;28.00;42.00;;;;;;5026933;28;19932;-71
2022/07/31 12:27:52;;;;;;;;;;;28.10;42.00;;;;;;5017796;28;19925;-71
2022/07/31 12:30:19;;;;;;;;;;;28.10;41.70;;;;;;5019739;28;19929;-70
2022/07/31 12:32:46;;;;;;;;;;;28.10;41.70;;;;;;5025155;28;20362;-71
2022/07/31 12:35:12;;;;;;;;;;;28.20;41.60;;;;;;5019697;28;20406;-71
2022/07/31 12:37:44;;;;;;;;;;;28.20;41.60;;;;;;5018440;28;19928;-72
2022/07/31 12:40:21;;;;;;;;;;;28.30;41.70;;;;;;5019639;28;19933;-69
2022/07/31 12:42:47;;;;;;;;;;;28.30;41.30;;;;;;5026026;28;19929;-70
2022/07/31 12:45:14;;;;;;;;;;;28.40;41.40;;;;;;5018027;28;19965;-70
2022/07/31 12:47:41;;;;;;;;;;;28.40;41.20;;;;;;5033294;28;19932;-71
2022/07/31 12:50:08;;;;;;;;;;;28.50;41.50;;;;;;5028820;28;19929;-70
2022/07/31 12:52:36;;;;;;;;;;;28.50;41.10;;;;;;5018903;28;19926;-70
2022/07/31 12:55:04;;;;;;;;;;;28.60;41.20;;;;;;5042600;28;19933;-69
2022/07/31 12:57:31;;;;;;;;;;;28.70;41.00;;;;;;5024746;28;20278;-70
2022/07/31 12:59:57;;;;;;;;;;;28.70;41.00;;;;;;5016748;28;19926;-70
2022/07/31 13:02:24;;;;;;;;;;;28.80;40.80;;;;;;5037267;28;19925;-71
2022/07/31 13:04:51;;;;;;;;;;;28.90;41.00;;;;;;5027267;28;19936;-70
2022/07/31 13:07:17;;;;;;;;;;;29.00;40.90;;;;;;5013331;28;20012;-71
2022/07/31 13:09:44;;;;;;;;;;;29.00;40.70;;;;;;5030028;28;19929;-69
2022/07/31 13:12:12;;;;;;;;;;;29.00;40.70;;;;;;5036615;28;19933;-71
2022/07/31 13:14:38;;;;;;;;;;;29.10;40.50;;;;;;5025204;28;19929;-73
2022/07/31 13:17:05;;;;;;;;;;;29.10;40.50;;;;;;5013488;28;20278;-70
2022/07/31 13:19:31;;;;;;;;;;;29.20;41.00;;;;;;5023748;28;19933;-70
2022/07/31 13:21:58;;;;;;;;;;;29.20;40.50;;;;;;5034130;28;20392;-70
2022/07/31 13:24:25;;;;;;;;;;;29.30;40.70;;;;;;5036227;28;19932;-71
2022/07/31 13:26:51;;;;;;;;;;;29.30;39.80;;;;;;5030101;28;19922;-71
2022/07/31 13:29:19;;;;;;;;;;;29.40;39.90;;;;;;5020140;28;19926;-70
2022/07/31 13:31:46;;;;;;;;;;;29.50;39.90;;;;;;5025081;28;19926;-70
2022/07/31 13:34:13;;;;;;;;;;;29.50;40.10;;;;;;5029021;28;19932;-71
2022/07/31 13:36:39;;;;;;;;;;;29.50;39.70;;;;;;5034051;28;20396;-72
2022/07/31 13:39:06;;;;;;;;;;;29.50;40.20;;;;;;5024214;28;20397;-72
2022/07/31 13:41:34;;;;;;;;;;;29.60;39.80;;;;;;5039476;28;20449;-71
2022/07/31 13:44:00;;;;;;;;;;;29.60;39.60;;;;;;5022216;28;19929;-71
2022/07/31 13:46:29;;;;;;;;;;;29.60;39.80;;;;;;5022661;28;19922;-70
2022/07/31 13:48:58;;;;;;;;;;;29.60;39.60;;;;;;5022719;28;19921;-70
2022/07/31 13:51:24;;;;;;;;;;;29.70;39.90;;;;;;5032601;28;20002;-71
2022/07/31 13:53:51;;;;;;;;;;;29.70;39.60;;;;;;5021418;28;20004;-72
2022/07/31 13:56:18;;;;;;;;;;;29.70;39.70;;;;;;5032412;28;19925;-70
2022/07/31 13:58:45;;;;;;;;;;;29.70;39.00;;;;;;5016204;28;19925;-70
2022/07/31 14:01:11;;;;;;;;;;;29.80;39.10;;;;;;5020473;28;19933;-70
2022/07/31 14:03:39;;;;;;;;;;;29.80;38.90;;;;;;5028278;28;19936;-69
2022/07/31 14:06:06;;;;;;;;;;;29.80;39.00;;;;;;5024733;28;19933;-70
2022/07/31 14:08:32;;;;;;;;;;;29.80;39.00;;;;;;5027717;28;19975;-70
2022/07/31 14:10:59;;;;;;;;;;;29.90;38.80;;;;;;5035112;28;20664;-68
2022/07/31 14:13:26;;;;;;;;;;;29.90;38.70;;;;;;5034133;28;20412;-71
2022/07/31 14:15:52;;;;;;;;;;;29.90;38.30;;;;;;5016307;28;19932;-70
2022/07/31 14:18:19;;;;;;;;;;;29.90;38.60;;;;;;5017831;28;19930;-70